sensor_id;sensor_type;location;lat;lon;timestamp;P1;durP1;ratioP1;P2;durP2;ratioP2
75012;SDS011;63567;49.956;20.130;2023-02-15T00:01:35;26.45;;;11.75;;
75012;SDS011;63567;49.956;20.130;2023-02-15T00:04:01;23.77;;;11.65;;
75012;SDS011;63567;49.956;20.130;2023-02-15T00:06:27;25.98;;;12.13;;
75012;SDS011;63567;49.956;20.130;2023-02-15T00:08:53;24.63;;;11.40;;
75012;SDS011;63567;49.956;20.130;2023-02-15T00:11:19;28.67;;;12.15;;
75012;SDS011;63567;49.956;20.130;2023-02-15T00:14:14;25.48;;;12.13;;
75012;SDS011;63567;49.956;20.130;2023-02-15T00:16:48;26.25;;;11.77;;
75012;SDS011;63567;49.956;20.130;2023-02-15T00:19:15;25.48;;;11.73;;
75012;SDS011;63567;49.956;20.130;2023-02-15T00:24:10;26.90;;;11.68;;
75012;SDS011;63567;49.956;20.130;2023-02-15T00:26:40;25.73;;;11.15;;
75012;SDS011;63567;49.956;20.130;2023-02-15T00:29:07;25.30;;;10.98;;
75012;SDS011;63567;49.956;20.130;2023-02-15T00:31:34;25.40;;;10.82;;
75012;SDS011;63567;49.956;20.130;2023-02-15T00:36:38;26.90;;;10.98;;
75012;SDS011;63567;49.956;20.130;2023-02-15T00:39:04;23.77;;;10.90;;
75012;SDS011;63567;49.956;20.130;2023-02-15T00:41:30;25.58;;;10.77;;
75012;SDS011;63567;49.956;20.130;2023-02-15T00:43:58;22.13;;;11.05;;
75012;SDS011;63567;49.956;20.130;2023-02-15T00:46:23;23.10;;;10.67;;
75012;SDS011;63567;49.956;20.130;2023-02-15T00:48:49;22.73;;;10.33;;
75012;SDS011;63567;49.956;20.130;2023-02-15T00:51:14;23.53;;;10.30;;
75012;SDS011;63567;49.956;20.130;2023-02-15T00:53:40;21.80;;;10.15;;
75012;SDS011;63567;49.956;20.130;2023-02-15T00:56:05;22.23;;;10.80;;
75012;SDS011;63567;49.956;20.130;2023-02-15T00:58:30;24.17;;;11.07;;
75012;SDS011;63567;49.956;20.130;2023-02-15T01:01:01;22.65;;;11.35;;
75012;SDS011;63567;49.956;20.130;2023-02-15T01:03:29;22.60;;;9.98;;
75012;SDS011;63567;49.956;20.130;2023-02-15T01:05:54;24.33;;;9.67;;
75012;SDS011;63567;49.956;20.130;2023-02-15T01:08:19;23.30;;;9.77;;
75012;SDS011;63567;49.956;20.130;2023-02-15T01:10:45;22.47;;;10.13;;
75012;SDS011;63567;49.956;20.130;2023-02-15T01:13:12;21.42;;;10.05;;
75012;SDS011;63567;49.956;20.130;2023-02-15T01:15:38;24.73;;;11.57;;
75012;SDS011;63567;49.956;20.130;2023-02-15T01:18:03;25.50;;;11.43;;
75012;SDS011;63567;49.956;20.130;2023-02-15T01:20:29;27.52;;;11.93;;
75012;SDS011;63567;49.956;20.130;2023-02-15T01:22:55;26.05;;;11.75;;
75012;SDS011;63567;49.956;20.130;2023-02-15T01:25:22;25.55;;;11.27;;
75012;SDS011;63567;49.956;20.130;2023-02-15T01:27:48;25.35;;;10.70;;
75012;SDS011;63567;49.956;20.130;2023-02-15T01:30:14;26.25;;;11.73;;
75012;SDS011;63567;49.956;20.130;2023-02-15T01:32:40;26.40;;;11.38;;
75012;SDS011;63567;49.956;20.130;2023-02-15T01:35:07;21.88;;;10.85;;
75012;SDS011;63567;49.956;20.130;2023-02-15T01:37:33;26.52;;;11.02;;
75012;SDS011;63567;49.956;20.130;2023-02-15T01:39:59;27.77;;;12.27;;
75012;SDS011;63567;49.956;20.130;2023-02-15T01:42:25;25.92;;;11.82;;
75012;SDS011;63567;49.956;20.130;2023-02-15T01:44:59;25.40;;;11.50;;
75012;SDS011;63567;49.956;20.130;2023-02-15T01:47:30;25.73;;;11.52;;
75012;SDS011;63567;49.956;20.130;2023-02-15T01:55:29;24.67;;;10.57;;
75012;SDS011;63567;49.956;20.130;2023-02-15T01:58:00;25.00;;;10.48;;
75012;SDS011;63567;49.956;20.130;2023-02-15T02:00:26;24.35;;;10.45;;
75012;SDS011;63567;49.956;20.130;2023-02-15T02:02:52;22.63;;;10.57;;
75012;SDS011;63567;49.956;20.130;2023-02-15T02:05:20;26.17;;;11.70;;
75012;SDS011;63567;49.956;20.130;2023-02-15T02:07:45;23.80;;;10.88;;
75012;SDS011;63567;49.956;20.130;2023-02-15T02:10:15;25.33;;;10.90;;
75012;SDS011;63567;49.956;20.130;2023-02-15T02:12:42;24.17;;;10.30;;
75012;SDS011;63567;49.956;20.130;2023-02-15T02:15:10;26.30;;;11.38;;
75012;SDS011;63567;49.956;20.130;2023-02-15T02:20:38;24.67;;;11.65;;
75012;SDS011;63567;49.956;20.130;2023-02-15T02:23:29;29.05;;;11.38;;
75012;SDS011;63567;49.956;20.130;2023-02-15T02:29:07;27.25;;;11.27;;
75012;SDS011;63567;49.956;20.130;2023-02-15T02:34:51;29.02;;;13.38;;
75012;SDS011;63567;49.956;20.130;2023-02-15T02:37:29;27.70;;;11.75;;
75012;SDS011;63567;49.956;20.130;2023-02-15T02:43:02;24.90;;;11.57;;
75012;SDS011;63567;49.956;20.130;2023-02-15T02:45:37;26.52;;;11.77;;
75012;SDS011;63567;49.956;20.130;2023-02-15T02:48:09;27.17;;;11.00;;
75012;SDS011;63567;49.956;20.130;2023-02-15T02:50:40;26.58;;;11.63;;
75012;SDS011;63567;49.956;20.130;2023-02-15T02:53:06;27.98;;;12.07;;
75012;SDS011;63567;49.956;20.130;2023-02-15T02:55:36;25.65;;;11.25;;
75012;SDS011;63567;49.956;20.130;2023-02-15T03:00:35;30.10;;;12.30;;
75012;SDS011;63567;49.956;20.130;2023-02-15T03:03:09;27.83;;;12.57;;
75012;SDS011;63567;49.956;20.130;2023-02-15T03:05:40;29.15;;;12.25;;
75012;SDS011;63567;49.956;20.130;2023-02-15T03:08:09;27.75;;;11.85;;
75012;SDS011;63567;49.956;20.130;2023-02-15T03:10:37;25.42;;;11.57;;
75012;SDS011;63567;49.956;20.130;2023-02-15T03:13:05;29.88;;;12.95;;
75012;SDS011;63567;49.956;20.130;2023-02-15T03:15:31;27.98;;;12.43;;
75012;SDS011;63567;49.956;20.130;2023-02-15T03:18:22;28.17;;;12.10;;
75012;SDS011;63567;49.956;20.130;2023-02-15T03:20:50;31.67;;;12.38;;
75012;SDS011;63567;49.956;20.130;2023-02-15T03:23:19;30.70;;;13.75;;
75012;SDS011;63567;49.956;20.130;2023-02-15T03:25:50;27.30;;;11.45;;
75012;SDS011;63567;49.956;20.130;2023-02-15T03:28:23;25.17;;;11.48;;
75012;SDS011;63567;49.956;20.130;2023-02-15T03:30:57;27.88;;;11.85;;
75012;SDS011;63567;49.956;20.130;2023-02-15T03:33:26;27.50;;;12.05;;
75012;SDS011;63567;49.956;20.130;2023-02-15T03:35:54;29.70;;;12.63;;
75012;SDS011;63567;49.956;20.130;2023-02-15T03:38:40;30.42;;;11.70;;
75012;SDS011;63567;49.956;20.130;2023-02-15T03:41:13;29.05;;;11.95;;
75012;SDS011;63567;49.956;20.130;2023-02-15T03:46:25;26.50;;;12.18;;
75012;SDS011;63567;49.956;20.130;2023-02-15T03:49:18;26.65;;;10.63;;
75012;SDS011;63567;49.956;20.130;2023-02-15T03:51:51;26.45;;;11.48;;
75012;SDS011;63567;49.956;20.130;2023-02-15T03:54:24;27.08;;;11.82;;
75012;SDS011;63567;49.956;20.130;2023-02-15T03:57:09;26.05;;;11.73;;
75012;SDS011;63567;49.956;20.130;2023-02-15T03:59:58;32.95;;;12.32;;
75012;SDS011;63567;49.956;20.130;2023-02-15T04:05:44;27.90;;;12.43;;
75012;SDS011;63567;49.956;20.130;2023-02-15T04:08:10;31.95;;;13.00;;
75012;SDS011;63567;49.956;20.130;2023-02-15T04:10:36;29.02;;;13.77;;
75012;SDS011;63567;49.956;20.130;2023-02-15T04:13:17;30.77;;;13.18;;
75012;SDS011;63567;49.956;20.130;2023-02-15T04:15:43;31.30;;;13.10;;
75012;SDS011;63567;49.956;20.130;2023-02-15T04:18:26;28.27;;;12.73;;
75012;SDS011;63567;49.956;20.130;2023-02-15T04:21:10;29.85;;;12.73;;
75012;SDS011;63567;49.956;20.130;2023-02-15T04:23:54;29.83;;;12.40;;
75012;SDS011;63567;49.956;20.130;2023-02-15T04:26:38;31.23;;;12.57;;
75012;SDS011;63567;49.956;20.130;2023-02-15T04:29:03;32.87;;;12.57;;
75012;SDS011;63567;49.956;20.130;2023-02-15T04:31:28;29.00;;;12.98;;
75012;SDS011;63567;49.956;20.130;2023-02-15T04:33:54;28.03;;;12.07;;
75012;SDS011;63567;49.956;20.130;2023-02-15T04:36:19;27.43;;;11.87;;
75012;SDS011;63567;49.956;20.130;2023-02-15T04:38:44;32.07;;;13.27;;
75012;SDS011;63567;49.956;20.130;2023-02-15T04:41:09;27.60;;;13.07;;
75012;SDS011;63567;49.956;20.130;2023-02-15T04:43:37;26.58;;;12.02;;
75012;SDS011;63567;49.956;20.130;2023-02-15T04:46:02;30.30;;;13.53;;
75012;SDS011;63567;49.956;20.130;2023-02-15T04:48:27;25.20;;;11.30;;
75012;SDS011;63567;49.956;20.130;2023-02-15T04:50:53;29.63;;;12.13;;
75012;SDS011;63567;49.956;20.130;2023-02-15T04:53:18;29.93;;;12.90;;
75012;SDS011;63567;49.956;20.130;2023-02-15T04:55:43;27.40;;;12.77;;
75012;SDS011;63567;49.956;20.130;2023-02-15T04:58:08;30.17;;;12.20;;
75012;SDS011;63567;49.956;20.130;2023-02-15T05:00:34;27.73;;;11.63;;
75012;SDS011;63567;49.956;20.130;2023-02-15T05:02:59;28.70;;;12.25;;
75012;SDS011;63567;49.956;20.130;2023-02-15T05:05:25;30.40;;;13.03;;
75012;SDS011;63567;49.956;20.130;2023-02-15T05:07:50;30.13;;;12.68;;
75012;SDS011;63567;49.956;20.130;2023-02-15T05:10:15;29.97;;;12.43;;
75012;SDS011;63567;49.956;20.130;2023-02-15T05:12:41;27.83;;;12.07;;
75012;SDS011;63567;49.956;20.130;2023-02-15T05:15:06;28.13;;;11.50;;
75012;SDS011;63567;49.956;20.130;2023-02-15T05:17:32;23.23;;;11.40;;
75012;SDS011;63567;49.956;20.130;2023-02-15T05:19:57;29.27;;;12.63;;
75012;SDS011;63567;49.956;20.130;2023-02-15T05:22:22;28.93;;;12.40;;
75012;SDS011;63567;49.956;20.130;2023-02-15T05:24:48;25.17;;;11.40;;
75012;SDS011;63567;49.956;20.130;2023-02-15T05:27:31;27.45;;;11.82;;
75012;SDS011;63567;49.956;20.130;2023-02-15T05:30:15;30.42;;;12.32;;
75012;SDS011;63567;49.956;20.130;2023-02-15T05:32:40;24.53;;;10.80;;
75012;SDS011;63567;49.956;20.130;2023-02-15T05:35:06;26.90;;;11.07;;
75012;SDS011;63567;49.956;20.130;2023-02-15T05:37:32;27.17;;;12.30;;
75012;SDS011;63567;49.956;20.130;2023-02-15T05:39:58;26.20;;;12.38;;
75012;SDS011;63567;49.956;20.130;2023-02-15T05:42:23;28.33;;;12.37;;
75012;SDS011;63567;49.956;20.130;2023-02-15T05:44:48;31.23;;;12.17;;
75012;SDS011;63567;49.956;20.130;2023-02-15T05:47:13;28.40;;;12.50;;
75012;SDS011;63567;49.956;20.130;2023-02-15T05:49:39;25.43;;;11.93;;
75012;SDS011;63567;49.956;20.130;2023-02-15T05:52:04;27.03;;;11.93;;
75012;SDS011;63567;49.956;20.130;2023-02-15T05:54:29;27.42;;;12.50;;
75012;SDS011;63567;49.956;20.130;2023-02-15T05:56:55;28.27;;;12.50;;
75012;SDS011;63567;49.956;20.130;2023-02-15T05:59:20;28.77;;;12.57;;
75012;SDS011;63567;49.956;20.130;2023-02-15T06:01:45;30.87;;;13.27;;
75012;SDS011;63567;49.956;20.130;2023-02-15T06:04:10;29.57;;;13.20;;
75012;SDS011;63567;49.956;20.130;2023-02-15T06:06:37;27.98;;;12.70;;
75012;SDS011;63567;49.956;20.130;2023-02-15T06:09:02;28.33;;;12.90;;
75012;SDS011;63567;49.956;20.130;2023-02-15T06:11:27;26.80;;;11.90;;
75012;SDS011;63567;49.956;20.130;2023-02-15T06:13:53;28.23;;;12.50;;
75012;SDS011;63567;49.956;20.130;2023-02-15T06:16:18;30.67;;;12.63;;
75012;SDS011;63567;49.956;20.130;2023-02-15T06:18:43;27.60;;;11.30;;
75012;SDS011;63567;49.956;20.130;2023-02-15T06:21:08;30.40;;;12.23;;
75012;SDS011;63567;49.956;20.130;2023-02-15T06:23:34;26.67;;;11.53;;
75012;SDS011;63567;49.956;20.130;2023-02-15T06:25:59;28.23;;;12.10;;
75012;SDS011;63567;49.956;20.130;2023-02-15T06:28:24;23.93;;;11.20;;
75012;SDS011;63567;49.956;20.130;2023-02-15T06:30:50;24.38;;;10.93;;
75012;SDS011;63567;49.956;20.130;2023-02-15T06:33:16;22.55;;;9.57;;
75012;SDS011;63567;49.956;20.130;2023-02-15T06:35:41;27.83;;;11.70;;
75012;SDS011;63567;49.956;20.130;2023-02-15T06:38:07;21.97;;;9.73;;
75012;SDS011;63567;49.956;20.130;2023-02-15T06:40:32;21.03;;;8.73;;
75012;SDS011;63567;49.956;20.130;2023-02-15T06:42:57;21.90;;;9.47;;
75012;SDS011;63567;49.956;20.130;2023-02-15T06:45:32;20.73;;;9.40;;
75012;SDS011;63567;49.956;20.130;2023-02-15T06:47:57;23.10;;;10.05;;
75012;SDS011;63567;49.956;20.130;2023-02-15T06:50:22;18.90;;;9.17;;
75012;SDS011;63567;49.956;20.130;2023-02-15T06:52:48;19.23;;;8.87;;
75012;SDS011;63567;49.956;20.130;2023-02-15T06:55:13;29.37;;;13.83;;
75012;SDS011;63567;49.956;20.130;2023-02-15T06:57:38;19.97;;;9.13;;
75012;SDS011;63567;49.956;20.130;2023-02-15T07:00:04;21.53;;;10.07;;
75012;SDS011;63567;49.956;20.130;2023-02-15T07:02:30;25.30;;;10.15;;
75012;SDS011;63567;49.956;20.130;2023-02-15T07:04:56;19.20;;;8.55;;
75012;SDS011;63567;49.956;20.130;2023-02-15T07:07:21;20.57;;;9.87;;
75012;SDS011;63567;49.956;20.130;2023-02-15T07:09:47;22.63;;;9.52;;
75012;SDS011;63567;49.956;20.130;2023-02-15T07:12:12;21.77;;;9.33;;
75012;SDS011;63567;49.956;20.130;2023-02-15T07:14:56;21.13;;;9.38;;
75012;SDS011;63567;49.956;20.130;2023-02-15T07:17:23;21.50;;;9.18;;
75012;SDS011;63567;49.956;20.130;2023-02-15T07:19:48;20.63;;;8.93;;
75012;SDS011;63567;49.956;20.130;2023-02-15T07:22:13;22.97;;;10.33;;
75012;SDS011;63567;49.956;20.130;2023-02-15T07:24:38;19.87;;;9.17;;
75012;SDS011;63567;49.956;20.130;2023-02-15T07:27:04;18.23;;;8.57;;
75012;SDS011;63567;49.956;20.130;2023-02-15T07:29:31;21.35;;;10.10;;
75012;SDS011;63567;49.956;20.130;2023-02-15T07:31:57;19.77;;;9.30;;
75012;SDS011;63567;49.956;20.130;2023-02-15T07:34:22;21.20;;;9.60;;
75012;SDS011;63567;49.956;20.130;2023-02-15T07:36:49;21.50;;;9.77;;
75012;SDS011;63567;49.956;20.130;2023-02-15T07:39:15;19.08;;;9.40;;
75012;SDS011;63567;49.956;20.130;2023-02-15T07:41:40;17.30;;;8.67;;
75012;SDS011;63567;49.956;20.130;2023-02-15T07:44:09;19.73;;;9.10;;
75012;SDS011;63567;49.956;20.130;2023-02-15T07:46:36;20.02;;;9.25;;
75012;SDS011;63567;49.956;20.130;2023-02-15T07:49:01;21.33;;;8.83;;
75012;SDS011;63567;49.956;20.130;2023-02-15T07:51:27;18.40;;;8.20;;
75012;SDS011;63567;49.956;20.130;2023-02-15T07:53:52;19.23;;;8.73;;
75012;SDS011;63567;49.956;20.130;2023-02-15T07:56:17;18.70;;;8.03;;
75012;SDS011;63567;49.956;20.130;2023-02-15T07:58:42;20.73;;;9.27;;
75012;SDS011;63567;49.956;20.130;2023-02-15T08:01:17;16.58;;;8.13;;
75012;SDS011;63567;49.956;20.130;2023-02-15T08:03:54;19.27;;;8.55;;
75012;SDS011;63567;49.956;20.130;2023-02-15T08:06:20;18.08;;;8.65;;
75012;SDS011;63567;49.956;20.130;2023-02-15T08:08:48;19.48;;;8.90;;
75012;SDS011;63567;49.956;20.130;2023-02-15T08:11:17;17.43;;;8.47;;
75012;SDS011;63567;49.956;20.130;2023-02-15T08:13:54;18.15;;;8.63;;
75012;SDS011;63567;49.956;20.130;2023-02-15T08:16:23;20.85;;;8.93;;
75012;SDS011;63567;49.956;20.130;2023-02-15T08:18:53;18.42;;;8.93;;
75012;SDS011;63567;49.956;20.130;2023-02-15T08:21:19;21.67;;;9.68;;
75012;SDS011;63567;49.956;20.130;2023-02-15T08:23:45;20.95;;;9.73;;
75012;SDS011;63567;49.956;20.130;2023-02-15T08:26:11;16.88;;;8.32;;
75012;SDS011;63567;49.956;20.130;2023-02-15T08:28:36;17.60;;;8.90;;
75012;SDS011;63567;49.956;20.130;2023-02-15T08:31:03;19.20;;;8.50;;
75012;SDS011;63567;49.956;20.130;2023-02-15T08:33:30;17.98;;;9.15;;
75012;SDS011;63567;49.956;20.130;2023-02-15T08:35:55;20.40;;;9.57;;
75012;SDS011;63567;49.956;20.130;2023-02-15T08:38:20;17.10;;;9.00;;
75012;SDS011;63567;49.956;20.130;2023-02-15T08:40:45;18.77;;;8.47;;
75012;SDS011;63567;49.956;20.130;2023-02-15T08:43:11;18.43;;;9.60;;
75012;SDS011;63567;49.956;20.130;2023-02-15T08:45:36;21.97;;;11.53;;
75012;SDS011;63567;49.956;20.130;2023-02-15T08:48:01;18.50;;;9.57;;
75012;SDS011;63567;49.956;20.130;2023-02-15T08:50:26;17.33;;;9.23;;
75012;SDS011;63567;49.956;20.130;2023-02-15T08:52:52;17.77;;;9.67;;
75012;SDS011;63567;49.956;20.130;2023-02-15T08:55:17;17.57;;;9.37;;
75012;SDS011;63567;49.956;20.130;2023-02-15T08:57:42;17.77;;;9.83;;
75012;SDS011;63567;49.956;20.130;2023-02-15T09:00:10;16.63;;;9.65;;
75012;SDS011;63567;49.956;20.130;2023-02-15T09:02:36;15.95;;;9.90;;
75012;SDS011;63567;49.956;20.130;2023-02-15T09:05:02;17.75;;;11.27;;
75012;SDS011;63567;49.956;20.130;2023-02-15T09:07:27;18.63;;;11.70;;
75012;SDS011;63567;49.956;20.130;2023-02-15T09:09:53;20.02;;;11.48;;
75012;SDS011;63567;49.956;20.130;2023-02-15T09:12:19;18.88;;;12.02;;
75012;SDS011;63567;49.956;20.130;2023-02-15T09:14:44;17.07;;;10.53;;
75012;SDS011;63567;49.956;20.130;2023-02-15T09:17:09;18.40;;;11.63;;
75012;SDS011;63567;49.956;20.130;2023-02-15T09:19:34;17.53;;;11.53;;
75012;SDS011;63567;49.956;20.130;2023-02-15T09:22:00;17.90;;;11.20;;
75012;SDS011;63567;49.956;20.130;2023-02-15T09:24:25;19.33;;;11.90;;
75012;SDS011;63567;49.956;20.130;2023-02-15T09:26:50;18.87;;;12.43;;
75012;SDS011;63567;49.956;20.130;2023-02-15T09:29:16;18.77;;;13.17;;
75012;SDS011;63567;49.956;20.130;2023-02-15T09:31:46;21.05;;;14.35;;
75012;SDS011;63567;49.956;20.130;2023-02-15T09:34:16;20.70;;;14.20;;
75012;SDS011;63567;49.956;20.130;2023-02-15T09:36:43;20.65;;;14.75;;
75012;SDS011;63567;49.956;20.130;2023-02-15T09:39:11;22.27;;;16.27;;
75012;SDS011;63567;49.956;20.130;2023-02-15T09:49:52;24.98;;;17.50;;
75012;SDS011;63567;49.956;20.130;2023-02-15T09:55:21;22.60;;;18.00;;
75012;SDS011;63567;49.956;20.130;2023-02-15T10:18:05;24.05;;;19.80;;
75012;SDS011;63567;49.956;20.130;2023-02-15T10:20:23;24.55;;;19.20;;
75012;SDS011;63567;49.956;20.130;2023-02-15T10:28:52;26.35;;;22.20;;
75012;SDS011;63567;49.956;20.130;2023-02-15T10:31:32;24.30;;;20.05;;
75012;SDS011;63567;49.956;20.130;2023-02-15T10:34:08;27.05;;;22.65;;
75012;SDS011;63567;49.956;20.130;2023-02-15T10:45:04;24.98;;;22.33;;
75012;SDS011;63567;49.956;20.130;2023-02-15T10:47:47;25.05;;;21.95;;
75012;SDS011;63567;49.956;20.130;2023-02-15T10:53:25;25.45;;;22.70;;
75012;SDS011;63567;49.956;20.130;2023-02-15T11:01:30;25.85;;;23.05;;
75012;SDS011;63567;49.956;20.130;2023-02-15T11:06:51;26.52;;;23.65;;
75012;SDS011;63567;49.956;20.130;2023-02-15T11:09:20;29.13;;;26.13;;
75012;SDS011;63567;49.956;20.130;2023-02-15T11:11:49;29.05;;;25.98;;
75012;SDS011;63567;49.956;20.130;2023-02-15T11:14:20;26.65;;;23.85;;
75012;SDS011;63567;49.956;20.130;2023-02-15T11:17:05;31.30;;;28.30;;
75012;SDS011;63567;49.956;20.130;2023-02-15T11:19:35;28.92;;;26.13;;
75012;SDS011;63567;49.956;20.130;2023-02-15T11:22:05;27.00;;;24.13;;
75012;SDS011;63567;49.956;20.130;2023-02-15T11:24:33;27.45;;;24.55;;
75012;SDS011;63567;49.956;20.130;2023-02-15T11:27:16;28.83;;;25.92;;
75012;SDS011;63567;49.956;20.130;2023-02-15T11:32:20;25.48;;;22.88;;
75012;SDS011;63567;49.956;20.130;2023-02-15T11:37:18;27.20;;;24.55;;
75012;SDS011;63567;49.956;20.130;2023-02-15T11:39:50;25.60;;;23.00;;
75012;SDS011;63567;49.956;20.130;2023-02-15T11:42:20;27.15;;;24.35;;
75012;SDS011;63567;49.956;20.130;2023-02-15T11:47:41;25.73;;;23.17;;
75012;SDS011;63567;49.956;20.130;2023-02-15T11:50:18;26.10;;;23.40;;
75012;SDS011;63567;49.956;20.130;2023-02-15T11:52:47;25.25;;;22.48;;
75012;SDS011;63567;49.956;20.130;2023-02-15T11:55:14;26.73;;;21.67;;
75012;SDS011;63567;49.956;20.130;2023-02-15T11:57:46;25.27;;;21.05;;
75012;SDS011;63567;49.956;20.130;2023-02-15T12:00:31;28.45;;;25.65;;
75012;SDS011;63567;49.956;20.130;2023-02-15T12:03:02;23.38;;;20.85;;
75012;SDS011;63567;49.956;20.130;2023-02-15T12:05:33;23.48;;;20.65;;
75012;SDS011;63567;49.956;20.130;2023-02-15T12:08:08;21.52;;;19.33;;
75012;SDS011;63567;49.956;20.130;2023-02-15T12:10:41;22.90;;;20.42;;
75012;SDS011;63567;49.956;20.130;2023-02-15T12:13:15;24.08;;;21.45;;
75012;SDS011;63567;49.956;20.130;2023-02-15T12:15:44;23.17;;;20.50;;
75012;SDS011;63567;49.956;20.130;2023-02-15T12:23:41;26.15;;;23.70;;
75012;SDS011;63567;49.956;20.130;2023-02-15T12:26:13;25.38;;;22.90;;
75012;SDS011;63567;49.956;20.130;2023-02-15T12:28:42;23.65;;;21.30;;
75012;SDS011;63567;49.956;20.130;2023-02-15T12:31:21;27.23;;;24.52;;
75012;SDS011;63567;49.956;20.130;2023-02-15T12:33:50;24.30;;;21.95;;
75012;SDS011;63567;49.956;20.130;2023-02-15T12:36:19;26.60;;;24.10;;
75012;SDS011;63567;49.956;20.130;2023-02-15T12:41:38;23.30;;;20.90;;
75012;SDS011;63567;49.956;20.130;2023-02-15T12:44:33;25.50;;;23.02;;
75012;SDS011;63567;49.956;20.130;2023-02-15T12:49:40;26.10;;;23.77;;
75012;SDS011;63567;49.956;20.130;2023-02-15T12:52:22;25.70;;;23.10;;
75012;SDS011;63567;49.956;20.130;2023-02-15T12:54:49;23.13;;;20.80;;
75012;SDS011;63567;49.956;20.130;2023-02-15T12:57:31;26.65;;;24.15;;
75012;SDS011;63567;49.956;20.130;2023-02-15T12:59:59;22.55;;;20.40;;
75012;SDS011;63567;49.956;20.130;2023-02-15T13:02:28;24.42;;;21.90;;
75012;SDS011;63567;49.956;20.130;2023-02-15T13:05:04;23.25;;;20.75;;
75012;SDS011;63567;49.956;20.130;2023-02-15T13:07:48;21.42;;;19.10;;
75012;SDS011;63567;49.956;20.130;2023-02-15T13:10:26;22.02;;;19.25;;
75012;SDS011;63567;49.956;20.130;2023-02-15T13:12:53;20.38;;;18.38;;
75012;SDS011;63567;49.956;20.130;2023-02-15T13:15:25;19.95;;;17.95;;
75012;SDS011;63567;49.956;20.130;2023-02-15T13:17:55;21.33;;;19.05;;
75012;SDS011;63567;49.956;20.130;2023-02-15T13:20:21;20.08;;;18.08;;
75012;SDS011;63567;49.956;20.130;2023-02-15T13:22:52;21.85;;;19.65;;
75012;SDS011;63567;49.956;20.130;2023-02-15T13:25:22;19.63;;;17.52;;
75012;SDS011;63567;49.956;20.130;2023-02-15T13:27:57;20.40;;;18.08;;
75012;SDS011;63567;49.956;20.130;2023-02-15T13:30:28;22.85;;;18.70;;
75012;SDS011;63567;49.956;20.130;2023-02-15T13:33:02;20.33;;;18.23;;
75012;SDS011;63567;49.956;20.130;2023-02-15T13:35:39;20.75;;;18.52;;
75012;SDS011;63567;49.956;20.130;2023-02-15T13:40:53;19.45;;;16.27;;
75012;SDS011;63567;49.956;20.130;2023-02-15T13:48:47;20.55;;;16.55;;
75012;SDS011;63567;49.956;20.130;2023-02-15T13:57:21;18.85;;;15.75;;
75012;SDS011;63567;49.956;20.130;2023-02-15T14:08:46;19.88;;;15.07;;
75012;SDS011;63567;49.956;20.130;2023-02-15T14:17:23;21.23;;;15.27;;
75012;SDS011;63567;49.956;20.130;2023-02-15T14:19:57;18.45;;;13.70;;
75012;SDS011;63567;49.956;20.130;2023-02-15T14:22:31;20.38;;;13.82;;
75012;SDS011;63567;49.956;20.130;2023-02-15T14:27:56;20.70;;;13.73;;
75012;SDS011;63567;49.956;20.130;2023-02-15T14:30:43;18.65;;;12.98;;
75012;SDS011;63567;49.956;20.130;2023-02-15T14:33:21;19.30;;;12.68;;
75012;SDS011;63567;49.956;20.130;2023-02-15T14:41:00;22.35;;;14.20;;
75012;SDS011;63567;49.956;20.130;2023-02-15T14:48:42;22.20;;;13.45;;
75012;SDS011;63567;49.956;20.130;2023-02-15T14:51:30;19.38;;;12.57;;
75012;SDS011;63567;49.956;20.130;2023-02-15T14:54:07;22.05;;;13.48;;
75012;SDS011;63567;49.956;20.130;2023-02-15T14:56:45;21.85;;;12.77;;
75012;SDS011;63567;49.956;20.130;2023-02-15T15:02:15;21.17;;;12.35;;
75012;SDS011;63567;49.956;20.130;2023-02-15T15:04:45;20.45;;;11.88;;
75012;SDS011;63567;49.956;20.130;2023-02-15T15:07:22;22.30;;;12.85;;
75012;SDS011;63567;49.956;20.130;2023-02-15T15:10:06;21.58;;;12.00;;
75012;SDS011;63567;49.956;20.130;2023-02-15T15:12:47;22.98;;;13.27;;
75012;SDS011;63567;49.956;20.130;2023-02-15T15:15:31;23.70;;;13.45;;
75012;SDS011;63567;49.956;20.130;2023-02-15T15:18:10;23.50;;;12.95;;
75012;SDS011;63567;49.956;20.130;2023-02-15T15:21:11;21.70;;;11.30;;
75012;SDS011;63567;49.956;20.130;2023-02-15T15:30:01;24.17;;;12.13;;
75012;SDS011;63567;49.956;20.130;2023-02-15T15:32:27;24.13;;;12.25;;
75012;SDS011;63567;49.956;20.130;2023-02-15T15:35:04;23.25;;;12.32;;
75012;SDS011;63567;49.956;20.130;2023-02-15T15:38:14;24.45;;;12.88;;
75012;SDS011;63567;49.956;20.130;2023-02-15T15:41:17;22.95;;;11.77;;
75012;SDS011;63567;49.956;20.130;2023-02-15T15:49:31;28.70;;;14.13;;
75012;SDS011;63567;49.956;20.130;2023-02-15T15:52:02;35.08;;;17.77;;
75012;SDS011;63567;49.956;20.130;2023-02-15T15:54:41;42.47;;;20.67;;
75012;SDS011;63567;49.956;20.130;2023-02-15T15:57:12;37.58;;;18.08;;
75012;SDS011;63567;49.956;20.130;2023-02-15T15:59:44;39.78;;;20.17;;
75012;SDS011;63567;49.956;20.130;2023-02-15T16:02:12;84.22;;;36.65;;
75012;SDS011;63567;49.956;20.130;2023-02-15T16:04:41;56.40;;;25.73;;
75012;SDS011;63567;49.956;20.130;2023-02-15T16:07:40;61.63;;;28.83;;
75012;SDS011;63567;49.956;20.130;2023-02-15T16:10:02;56.35;;;26.38;;
75012;SDS011;63567;49.956;20.130;2023-02-15T16:12:33;81.10;;;36.30;;
75012;SDS011;63567;49.956;20.130;2023-02-15T16:15:04;48.97;;;22.90;;
75012;SDS011;63567;49.956;20.130;2023-02-15T16:17:40;59.08;;;28.77;;
75012;SDS011;63567;49.956;20.130;2023-02-15T16:20:29;57.47;;;27.45;;
75012;SDS011;63567;49.956;20.130;2023-02-15T16:25:47;55.90;;;27.90;;
75012;SDS011;63567;49.956;20.130;2023-02-15T16:28:14;52.17;;;25.75;;
75012;SDS011;63567;49.956;20.130;2023-02-15T16:30:43;48.85;;;24.17;;
75012;SDS011;63567;49.956;20.130;2023-02-15T16:33:10;45.63;;;23.77;;
75012;SDS011;63567;49.956;20.130;2023-02-15T16:35:39;37.58;;;17.50;;
75012;SDS011;63567;49.956;20.130;2023-02-15T16:38:08;33.95;;;17.58;;
75012;SDS011;63567;49.956;20.130;2023-02-15T16:40:56;67.13;;;30.70;;
75012;SDS011;63567;49.956;20.130;2023-02-15T16:43:24;65.28;;;29.30;;
75012;SDS011;63567;49.956;20.130;2023-02-15T16:45:58;45.95;;;20.77;;
75012;SDS011;63567;49.956;20.130;2023-02-15T16:48:29;40.45;;;19.25;;
75012;SDS011;63567;49.956;20.130;2023-02-15T16:50:57;35.58;;;16.58;;
75012;SDS011;63567;49.956;20.130;2023-02-15T16:53:24;33.88;;;16.42;;
75012;SDS011;63567;49.956;20.130;2023-02-15T16:55:55;40.20;;;17.55;;
75012;SDS011;63567;49.956;20.130;2023-02-15T16:58:28;37.60;;;17.80;;
75012;SDS011;63567;49.956;20.130;2023-02-15T17:01:07;41.03;;;17.35;;
75012;SDS011;63567;49.956;20.130;2023-02-15T17:03:36;38.75;;;18.15;;
75012;SDS011;63567;49.956;20.130;2023-02-15T17:06:02;38.90;;;17.38;;
75012;SDS011;63567;49.956;20.130;2023-02-15T17:16:32;43.72;;;20.02;;
75012;SDS011;63567;49.956;20.130;2023-02-15T17:19:07;46.70;;;20.00;;
75012;SDS011;63567;49.956;20.130;2023-02-15T17:21:40;38.22;;;18.58;;
75012;SDS011;63567;49.956;20.130;2023-02-15T17:24:15;46.55;;;19.95;;